Map

Track Data

SID SEASON NUMBER BASIN SUBBASIN NAME ISO_TIME NATURE LAT LON WMO_WIND WMO_PRES WMO_AGENCY TRACK_TYPE DIST2LAND LANDFALL IFLAG USA_AGENCY USA_ATCF_ID USA_LAT USA_LON USA_RECORD USA_STATUS USA_WIND USA_PRES USA_SSHS USA_R34_NE USA_R34_SE USA_R34_SW USA_R34_NW USA_R50_NE USA_R50_SE USA_R50_SW USA_R50_NW USA_R64_NE USA_R64_SE USA_R64_SW USA_R64_NW USA_POCI USA_ROCI USA_RMW USA_EYE TOKYO_LAT TOKYO_LON TOKYO_GRADE TOKYO_WIND TOKYO_PRES TOKYO_R50_DIR TOKYO_R50_LONG TOKYO_R50_SHORT TOKYO_R30_DIR TOKYO_R30_LONG TOKYO_R30_SHORT TOKYO_LAND CMA_LAT CMA_LON CMA_CAT CMA_WIND CMA_PRES HKO_LAT HKO_LON HKO_CAT HKO_WIND HKO_PRES NEWDELHI_LAT NEWDELHI_LON NEWDELHI_GRADE NEWDELHI_WIND NEWDELHI_PRES NEWDELHI_CI NEWDELHI_DP NEWDELHI_POCI REUNION_LAT REUNION_LON REUNION_TYPE REUNION_WIND REUNION_PRES REUNION_TNUM REUNION_CI REUNION_RMW REUNION_R34_NE REUNION_R34_SE REUNION_R34_SW REUNION_R34_NW REUNION_R50_NE REUNION_R50_SE REUNION_R50_SW REUNION_R50_NW REUNION_R64_NE REUNION_R64_SE REUNION_R64_SW REUNION_R64_NW BOM_LAT BOM_LON BOM_TYPE BOM_WIND BOM_PRES BOM_TNUM BOM_CI BOM_RMW BOM_R34_NE BOM_R34_SE BOM_R34_SW BOM_R34_NW BOM_R50_NE BOM_R50_SE BOM_R50_SW BOM_R50_NW BOM_R64_NE BOM_R64_SE BOM_R64_SW BOM_R64_NW BOM_ROCI BOM_POCI BOM_EYE BOM_POS_METHOD BOM_PRES_METHOD NADI_LAT NADI_LON NADI_CAT NADI_WIND NADI_PRES WELLINGTON_LAT WELLINGTON_LON WELLINGTON_WIND WELLINGTON_PRES DS824_LAT DS824_LON DS824_STAGE DS824_WIND DS824_PRES TD9636_LAT TD9636_LON TD9636_STAGE TD9636_WIND TD9636_PRES TD9635_LAT TD9635_LON TD9635_WIND TD9635_PRES TD9635_ROCI NEUMANN_LAT NEUMANN_LON NEUMANN_CLASS NEUMANN_WIND NEUMANN_PRES MLC_LAT MLC_LON MLC_CLASS MLC_WIND MLC_PRES USA_GUST BOM_GUST BOM_GUST_PER REUNION_GUST REUNION_GUST_PER USA_SEAHGT USA_SEARAD_NE USA_SEARAD_SE USA_SEARAD_SW USA_SEARAD_NW STORM_SPEED STORM_DIR
1985231N25121 1985 70 WP MM NOT_NAMED 1985-08-19 00:00:00 TS 24.5000 120.500 main 15 15 __O___________ -1 24.5000 120.500 0 19 999 1 64
1985231N25121 1985 70 WP MM NOT_NAMED 1985-08-19 03:00:00 TS 24.5175 120.545 main 15 15 __P___________ -1 24.5175 120.545 0 21 997 0 0
1985231N25121 1985 70 WP MM NOT_NAMED 1985-08-19 06:00:00 TS 24.5000 120.500 main 15 15 __O___________ -1 24.5000 120.500 1 23 996 2 247
1985231N25121 1985 70 WP MM NOT_NAMED 1985-08-19 09:00:00 TS 24.4225 120.303 main 30 30 __P___________ -1 24.4225 120.303 1 23 996 5 246
1985231N25121 1985 70 WP MM NOT_NAMED 1985-08-19 12:00:00 TS 24.3000 120.000 main 45 45 __O___________ -1 24.3000 120.000 1 23 996 6 244
1985231N25121 1985 70 WP MM NOT_NAMED 1985-08-19 15:00:00 TS 24.1573 119.695 main 64 61 __P___________ -1 24.1573 119.695 1 21 996 7 245
1985231N25121 1985 70 WP MM NOT_NAMED 1985-08-19 18:00:00 TS 24.0000 119.300 main 90 70 __O___________ -1 24.0000 119.300 0 19 997 9 250
1985231N25121 1985 70 WP MM NOT_NAMED 1985-08-19 21:00:00 TS 23.8646 118.818 main 70 45 __P___________ -1 23.8646 118.818 0 19 997 11 253
1985231N25121 1985 70 WP MM NOT_NAMED 1985-08-20 00:00:00 TS 23.7000 118.200 main 45 22 __O___________ -1 23.7000 118.200 0 19 998 14 252
1985231N25121 1985 70 WP MM NOT_NAMED 1985-08-20 03:00:00 TS 23.4359 117.377 main 30 0 __P___________ -1 23.4359 117.377 0 19 998 16 251
1985231N25121 1985 70 WP MM NOT_NAMED 1985-08-20 06:00:00 TS 23.2000 116.600 main 0 0 __O___________ -1 23.2000 116.600 0 19 998 12 254
1985231N25121 1985 70 WP MM NOT_NAMED 1985-08-20 09:00:00 TS 23.1043 116.140 main 0 0 __P___________ -1 23.1043 116.140 0 19 998 7 262
1985231N25121 1985 70 WP MM NOT_NAMED 1985-08-20 12:00:00 TS 23.1000 115.800 main 0 0 __O___________ -1 23.1000 115.800 0 19 999 7 271
1985231N25121 1985 70 WP MM NOT_NAMED 1985-08-20 15:00:00 TS 23.1200 115.378 main 0 0 __P___________ -1 23.1200 115.378 0 18 999 7 278
1985231N25121 1985 70 WP MM NOT_NAMED 1985-08-20 18:00:00 TS 23.2000 115.000 main 0 0 __O___________ -1 23.2000 115.000 0 17 999 6 290
1985231N25121 1985 70 WP MM NOT_NAMED 1985-08-20 21:00:00 TS 23.3348 114.735 main 0 0 __P___________ -1 23.3348 114.735 0 17 999 5 303
1985231N25121 1985 70 WP MM NOT_NAMED 1985-08-21 00:00:00 TS 23.5000 114.500 main 0 0 __O___________ -1 23.5000 114.500 0 17 999 7 309
1985231N25121 1985 70 WP MM NOT_NAMED 1985-08-21 03:00:00 TS 23.7476 114.178 main 0 0 __P___________ -1 23.7476 114.178 0 17 999 6 299
1985231N25121 1985 70 WP MM NOT_NAMED 1985-08-21 06:00:00 TS 23.8000 113.900 main 0 0 __O___________ -1 23.8000 113.900 0 17 999 5 226
1985231N25121 1985 70 WP MM NOT_NAMED 1985-08-21 09:00:00 TS 23.3824 113.762 main 0 0 __P___________ -1 23.3824 113.762 0 17 999 10 191
1985231N25121 1985 70 WP MM NOT_NAMED 1985-08-21 12:00:00 TS 22.8000 113.700 main 0 0 __O___________ -1 22.8000 113.700 0 17 999 11 184
1985231N25121 1985 70 WP MM NOT_NAMED 1985-08-21 15:00:00 TS 22.3249 113.673 main 20 15 __P___________ -1 22.3249 113.673 0 18 998 8 186
1985231N25121 1985 70 WP MM NOT_NAMED 1985-08-21 18:00:00 TS 22.0000 113.600 main 24 22 __O___________ -1 22.0000 113.600 0 19 998 5 214
1985231N25121 1985 70 WP MM NOT_NAMED 1985-08-21 21:00:00 TS 21.9475 113.395 main 24 10 __P___________ -1 21.9475 113.395 0 19 997 5 270
1985231N25121 1985 70 WP MM NOT_NAMED 1985-08-22 00:00:00 TS 22.0000 113.100 main 10 0 __O___________ -1 22.0000 113.100 0 19 997 5 273
1985231N25121 1985 70 WP MM NOT_NAMED 1985-08-22 03:00:00 TS 21.9719 112.833 main 0 0 __P___________ -1 21.9719 112.833 0 19 996 7 261
1985231N25121 1985 70 WP MM NOT_NAMED 1985-08-22 06:00:00 TS 21.9000 112.400 main 0 0 __O___________ -1 21.9000 112.400 0 19 996 12 260
1985231N25121 1985 70 WP MM NOT_NAMED 1985-08-22 09:00:00 TS 21.7738 111.592 main 0 0 __P___________ -1 21.7738 111.592 0 19 996 15 259
1985231N25121 1985 70 WP MM NOT_NAMED 1985-08-22 12:00:00 TS 21.6000 110.800 main 0 0 __O___________ -1 21.6000 110.800 0 19 996 12 251
1985231N25121 1985 70 WP MM NOT_NAMED 1985-08-22 15:00:00 TS 21.4068 110.418 main 0 0 __P___________ -1 21.4068 110.418 0 19 995 7 234
1985231N25121 1985 70 WP MM NOT_NAMED 1985-08-22 18:00:00 TS 21.2000 110.200 main 0 0 __O___________ -1 21.2000 110.200 0 19 995 6 224
1985231N25121 1985 70 WP MM NOT_NAMED 1985-08-22 21:00:00 TS 20.9773 109.973 main 0 0 __P___________ -1 20.9773 109.973 0 24 995 6 229
1985231N25121 1985 70 WP MM NOT_NAMED 1985-08-23 00:00:00 TS 20.8000 109.700 main 0 0 __O___________ -1 20.8000 109.700 1 29 995 7 250
1985231N25121 1985 70 WP MM NOT_NAMED 1985-08-23 03:00:00 TS 20.7353 109.250 main 43 43 __P___________ -1 20.7353 109.250 1 29 995 8 263
1985231N25121 1985 70 WP MM NOT_NAMED 1985-08-23 06:00:00 TS 20.7000 108.800 main 88 88 __O___________ -1 20.7000 108.800 1 29 995 7 259
1985231N25121 1985 70 WP MM NOT_NAMED 1985-08-23 09:00:00 TS 20.5997 108.535 main 105 102 __P___________ -1 20.5997 108.535 1 29 995 5 247
1985231N25121 1985 70 WP MM NOT_NAMED 1985-08-23 12:00:00 TS 20.5000 108.300 main 108 91 __O___________ -1 20.5000 108.300 1 29 995 6 253
1985231N25121 1985 70 WP MM NOT_NAMED 1985-08-23 15:00:00 TS 20.4276 107.942 main 84 69 __P___________ -1 20.4276 107.942 1 29 995 7 261
1985231N25121 1985 70 WP MM NOT_NAMED 1985-08-23 18:00:00 TS 20.4000 107.600 main 69 59 __O___________ -1 20.4000 107.600 1 29 995 5 271
1985231N25121 1985 70 WP MM NOT_NAMED 1985-08-23 21:00:00 TS 20.4349 107.363 main 59 44 __P___________ -1 20.4349 107.363 1 29 995 4 285
1985231N25121 1985 70 WP MM NOT_NAMED 1985-08-24 00:00:00 TS 20.5000 107.200 main 44 33 __O___________ -1 20.5000 107.200 1 29 995 3 294
1985231N25121 1985 70 WP MM NOT_NAMED 1985-08-24 03:00:00 TS 20.5575 107.070 main 33 23 __P___________ -1 20.5575 107.070 1 29 995 2 299
1985231N25121 1985 70 WP MM NOT_NAMED 1985-08-24 06:00:00 TS 20.6000 107.000 main 23 23 __O___________ -1 20.6000 107.000 1 29 995 1 290
1985231N25121 1985 70 WP MM NOT_NAMED 1985-08-24 09:00:00 TS 20.5925 106.970 main 23 23 __P___________ -1 20.5925 106.970 1 29 995 0 0
1985231N25121 1985 70 WP MM NOT_NAMED 1985-08-24 12:00:00 TS 20.6000 107.000 main 23 20 __O___________ -1 20.6000 107.000 1 29 995 1 33
1985231N25121 1985 70 WP MM NOT_NAMED 1985-08-24 15:00:00 TS 20.6923 107.040 main 20 11 __P___________ -1 20.6923 107.040 1 29 995 3 43
1985231N25121 1985 70 WP MM NOT_NAMED 1985-08-24 18:00:00 TS 20.8000 107.200 main 11 11 __O___________ -1 20.8000 107.200 1 29 995 5 72
1985231N25121 1985 70 WP MM NOT_NAMED 1985-08-24 21:00:00 TS 20.8578 107.592 main 23 23 __P___________ -1 20.8578 107.592 1 29 995 8 82
1985231N25121 1985 70 WP MM NOT_NAMED 1985-08-25 00:00:00 TS 20.9000 108.000 main 56 54 __O___________ -1 20.9000 108.000 1 29 995 6 80
1985231N25121 1985 70 WP MM NOT_NAMED 1985-08-25 03:00:00 TS 20.9573 108.188 main 54 54 __P___________ -1 20.9573 108.188 1 29 995 3 70
1985231N25121 1985 70 WP MM NOT_NAMED 1985-08-25 06:00:00 TS 21.0000 108.300 main 56 56 __O___________ -1 21.0000 108.300 1 29 995 3 78
1985231N25121 1985 70 WP MM NOT_NAMED 1985-08-25 09:00:00 TS 21.0075 108.450 main 63 63 __P___________ -1 21.0075 108.450 1 33 992 3 90
1985231N25121 1985 70 WP MM NOT_NAMED 1985-08-25 12:00:00 TS 21.0000 108.600 main 67 67 __O___________ -1 21.0000 108.600 2 38 990 3 95
1985231N25121 1985 70 WP MM NOT_NAMED 1985-08-25 15:00:00 TS 20.9849 108.728 main 67 54 __P___________ -1 20.9849 108.728 2 43 985 3 90
1985231N25121 1985 70 WP MM NOT_NAMED 1985-08-25 18:00:00 TS 21.0000 108.900 main 54 35 __O___________ -1 21.0000 108.900 3 48 980 4 72
1985231N25121 1985 70 WP MM NOT_NAMED 1985-08-25 21:00:00 TS 21.1150 109.162 main 33 22 __P___________ -1 21.1150 109.162 3 48 980 6 70
1985231N25121 1985 70 WP MM NOT_NAMED 1985-08-26 00:00:00 TS 21.2000 109.500 main 23 0 __O___________ -1 21.2000 109.500 3 48 980 7 94
1985231N25121 1985 70 WP MM NOT_NAMED 1985-08-26 03:00:00 TS 21.0702 109.931 main 0 0 __P___________ -1 21.0702 109.931 3 43 982 8 105
1985231N25121 1985 70 WP MM NOT_NAMED 1985-08-26 06:00:00 TS 21.0000 110.300 main 10 0 __O___________ -1 21.0000 110.300 2 38 984 5 72
1985231N25121 1985 70 WP MM NOT_NAMED 1985-08-26 09:00:00 TS 21.2398 110.482 main 0 0 __P___________ -1 21.2398 110.482 2 33 987 6 17
1985231N25121 1985 70 WP MM NOT_NAMED 1985-08-26 12:00:00 TS 21.6000 110.500 main 0 0 __O___________ -1 21.6000 110.500 1 29 990 7 357
1985231N25121 1985 70 WP MM NOT_NAMED 1985-08-26 15:00:00 TS 21.9297 110.448 main 0 0 __P___________ -1 21.9297 110.448 1 26 991 7 335
1985231N25121 1985 70 WP MM NOT_NAMED 1985-08-26 18:00:00 TS 22.2000 110.200 main 0 0 __O___________ -1 22.2000 110.200 1 23 992 8 301
1985231N25121 1985 70 WP MM NOT_NAMED 1985-08-26 21:00:00 TS 22.3531 109.673 main 0 0 __P___________ -1 22.3531 109.673 1 23 992 10 281
1985231N25121 1985 70 WP MM NOT_NAMED 1985-08-27 00:00:00 TS 22.4000 109.100 main 0 0 __O___________ -1 22.4000 109.100 1 23 992 9 272
1985231N25121 1985 70 WP MM NOT_NAMED 1985-08-27 03:00:00 TS 22.3873 108.740 main 0 0 __P___________ -1 22.3873 108.740 1 23 991 6 260
1985231N25121 1985 70 WP MM NOT_NAMED 1985-08-27 06:00:00 TS 22.3000 108.500 main 0 0 __O___________ -1 22.3000 108.500 1 23 990 5 235
1985231N25121 1985 70 WP MM NOT_NAMED 1985-08-27 09:00:00 TS 22.1274 108.335 main 0 0 __P___________ -1 22.1274 108.335 1 23 990 4 223
1985231N25121 1985 70 WP MM NOT_NAMED 1985-08-27 12:00:00 TS 22.0000 108.200 main 0 0 __O___________ -1 22.0000 108.200 1 23 990 3 262
1985231N25121 1985 70 WP MM NOT_NAMED 1985-08-27 15:00:00 TS 22.0922 108.053 main 0 0 __P___________ -1 22.0922 108.053 1 23 991 4 298
1985231N25121 1985 70 WP MM NOT_NAMED 1985-08-27 18:00:00 TS 22.2000 107.800 main 0 0 __O___________ -1 22.2000 107.800 1 23 992 7 275
1985231N25121 1985 70 WP MM NOT_NAMED 1985-08-27 21:00:00 TS 22.1528 107.330 main 0 0 __P___________ -1 22.1528 107.330 1 21 993 9 258
1985231N25121 1985 70 WP MM NOT_NAMED 1985-08-28 00:00:00 TS 22.0000 106.800 main 0 0 __O___________ -1 22.0000 106.800 0 19 994 10 248
1985231N25121 1985 70 WP MM NOT_NAMED 1985-08-28 03:00:00 TS 21.7726 106.302 main 0 0 __P___________ -1 21.7726 106.302 0 19 994 9 236
1985231N25121 1985 70 WP MM NOT_NAMED 1985-08-28 06:00:00 TS 21.5000 106.000 main 0 0 __O___________ -1 21.5000 106.000 0 19 995 6 202
1985231N25121 1985 70 WP MM NOT_NAMED 1985-08-28 09:00:00 TS 21.2049 106.061 main 0 0 __P___________ -1 21.2049 106.061 0 19 996 6 151
1985231N25121 1985 70 WP MM NOT_NAMED 1985-08-28 12:00:00 TS 21.0000 106.300 main 0 0 __O___________ -1 21.0000 106.300 0 19 998 5 116
1985231N25121 1985 70 WP MM NOT_NAMED 1985-08-28 15:00:00 TS 21.0050 106.492 main 0 0 __P___________ -1 21.0050 106.492 0 18 998 4 75
1985231N25121 1985 70 WP MM NOT_NAMED 1985-08-28 18:00:00 TS 21.1000 106.700 main 0 0 __O___________ -1 21.1000 106.700 0 17 998 4 69
1985231N25121 1985 70 WP MM NOT_NAMED 1985-08-28 21:00:00 TS 21.1575 106.930 main 0 0 __P___________ -1 21.1575 106.930 0 17 999 4 75
1985231N25121 1985 70 WP MM NOT_NAMED 1985-08-29 00:00:00 TS 21.2000 107.100 main 0 0 __O___________ -1 21.2000 107.100 0 17 1000 2 74
1985231N25121 1985 70 WP MM NOT_NAMED 1985-08-29 03:00:00 TS 21.2074 107.108 main 0 0 __P___________ -1 21.2074 107.108 0 17 1000 0 0
1985231N25121 1985 70 WP MM NOT_NAMED 1985-08-29 06:00:00 TS 21.2000 107.100 main 0 0 __O___________ -1 21.2000 107.100 0 17 1000 1 93
1985231N25121 1985 70 WP MM NOT_NAMED 1985-08-29 09:00:00 TS 21.2001 107.250 main 0 0 __P___________ -1 21.2001 107.250 0 17 1001 3 90
1985231N25121 1985 70 WP MM NOT_NAMED 1985-08-29 12:00:00 TS 21.2000 107.400 main 0 0 __O___________ -1 21.2000 107.400 0 17 1002 2 90
1985231N25121 1985 70 WP MM NOT_NAMED 1985-08-29 15:00:00 TS 21.2000 107.423 main 0 0 __P___________ -1 21.2000 107.423 0 17 1002 0 0
1985231N25121 1985 70 WP MM NOT_NAMED 1985-08-29 18:00:00 TS 21.2000 107.400 main 0 0 __O___________ -1 21.2000 107.400 0 17 1002 1 270
1985231N25121 1985 70 WP MM NOT_NAMED 1985-08-29 21:00:00 TS 21.1999 107.363 main 0 0 __P___________ -1 21.1999 107.363 0 17 1002 0 0
1985231N25121 1985 70 WP MM NOT_NAMED 1985-08-30 00:00:00 TS 21.2000 107.400 main 0 0 __O___________ -1 21.2000 107.400 0 17 1003 2 86
1985231N25121 1985 70 WP MM NOT_NAMED 1985-08-30 03:00:00 TS 21.2151 107.612 main 11 11 __P___________ -1 21.2151 107.612 0 17 1003 5 90
1985231N25121 1985 70 WP MM NOT_NAMED 1985-08-30 06:00:00 TS 21.2000 107.900 main 22 22 __O___________ -1 21.2000 107.900 0 17 1003 5 103
1985231N25121 1985 70 WP MM NOT_NAMED 1985-08-30 09:00:00 TS 21.0999 108.143 main 39 39 __P___________ -1 21.0999 108.143 0 17 1002 5 113
1985231N25121 1985 70 WP MM NOT_NAMED 1985-08-30 12:00:00 TS 21.0000 108.400 main 59 59 __O___________ -1 21.0000 108.400 0 17 1002 6 102
1985231N25121 1985 70 WP MM NOT_NAMED 1985-08-30 15:00:00 TS 20.9851 108.737 main 67 49 __P___________ -1 20.9851 108.737 0 17 1002 6 90
1985231N25121 1985 70 WP MM NOT_NAMED 1985-08-30 18:00:00 TS 21.0000 109.000 main 49 49 __O___________ -1 21.0000 109.000 0 17 1002 3 87
1985231N25121 1985 70 WP MM NOT_NAMED 1985-08-30 21:00:00 TS 20.9999 109.045 main 49 49 __P___________ -1 20.9999 109.045 0 17 1001 0 0
1985231N25121 1985 70 WP MM NOT_NAMED 1985-08-31 00:00:00 TS 21.0000 109.000 main 49 49 __O___________ -1 21.0000 109.000 0 17 1001 1 270
1985231N25121 1985 70 WP MM NOT_NAMED 1985-08-31 03:00:00 TS 21.0000 108.985 main 49 49 __P___________ -1 21.0000 108.985 0 17 1001 0 0
1985231N25121 1985 70 WP MM NOT_NAMED 1985-08-31 06:00:00 TS 21.0000 109.000 main 49 __O___________ -1 21.0000 109.000 0 17 1001 0 0

Digital Typhoon Data and Search

About IBTrACS Database

This database is a web-friendly format of International Best Track Archive for Climate Stewardship (IBTrACS), a global best track data archive curated by NOAA dating back to 1842.

Updated: 2021-10-21